createdAt,value
2017-03-05T00:01:04.618Z,984
2017-03-05T00:02:10.599Z,984
2017-03-05T00:03:16.586Z,984
2017-03-05T00:04:21.915Z,984
2017-03-05T00:05:27.893Z,984
2017-03-05T00:06:33.876Z,984
2017-03-05T00:07:39.866Z,984
2017-03-05T00:08:45.841Z,984
2017-03-05T00:09:51.161Z,984
2017-03-05T00:10:57.146Z,984
2017-03-05T00:12:02.470Z,984
2017-03-05T00:13:08.452Z,984
2017-03-05T00:14:14.433Z,984
2017-03-05T00:15:20.420Z,984
2017-03-05T00:16:25.309Z,984
2017-03-05T00:17:30.628Z,984
2017-03-05T00:18:36.611Z,984
2017-03-05T00:19:42.596Z,984
2017-03-05T00:20:48.578Z,984
2017-03-05T00:21:54.567Z,984
2017-03-05T00:23:00.548Z,984
2017-03-05T00:24:05.433Z,984
2017-03-05T00:25:11.415Z,984
2017-03-05T00:26:17.401Z,984
2017-03-05T00:27:23.386Z,984
2017-03-05T00:28:29.371Z,984
2017-03-05T00:29:34.692Z,984
2017-03-05T00:30:40.677Z,984
2017-03-05T00:31:46.663Z,984
2017-03-05T00:32:52.645Z,984
2017-03-05T00:33:58.628Z,984
2017-03-05T00:35:04.615Z,984
2017-03-05T00:36:10.596Z,984
2017-03-05T00:37:16.589Z,984
2017-03-05T00:38:22.567Z,984
2017-03-05T00:39:28.546Z,984
2017-03-05T00:40:33.866Z,984
2017-03-05T00:41:39.857Z,984
2017-03-05T00:42:45.176Z,984
2017-03-05T00:43:50.498Z,984
2017-03-05T00:44:56.483Z,984
2017-03-05T00:46:02.464Z,984
2017-03-05T00:47:07.789Z,984
2017-03-05T00:48:13.777Z,984
2017-03-05T00:49:19.764Z,984
2017-03-05T00:50:25.744Z,984
2017-03-05T00:51:31.729Z,984
2017-03-05T00:52:37.721Z,984
2017-03-05T00:53:43.696Z,984
2017-03-05T00:54:49.680Z,984
2017-03-05T00:55:55.666Z,984
2017-03-05T00:57:01.650Z,984
2017-03-05T00:58:07.637Z,984
2017-03-05T00:59:13.615Z,984
2017-03-05T01:00:19.599Z,984
2017-03-05T01:01:25.584Z,984
2017-03-05T01:02:31.569Z,984
2017-03-05T01:03:37.554Z,984
2017-03-05T01:04:43.547Z,984
2017-03-05T01:05:49.523Z,984
2017-03-05T01:06:55.509Z,984
2017-03-05T01:08:00.390Z,984
2017-03-05T01:09:06.372Z,984
2017-03-05T01:10:12.358Z,984
2017-03-05T01:11:18.345Z,984
2017-03-05T01:12:24.324Z,984
2017-03-05T01:13:30.313Z,985
2017-03-05T01:14:35.637Z,985
2017-03-05T01:15:41.623Z,985
2017-03-05T01:16:47.602Z,985
2017-03-05T01:17:53.589Z,985
2017-03-05T01:18:59.571Z,985
2017-03-05T01:20:05.551Z,985
2017-03-05T01:21:11.528Z,985
2017-03-05T01:22:17.515Z,984
2017-03-05T01:23:23.501Z,984
2017-03-05T01:24:29.481Z,985
2017-03-05T01:25:35.467Z,984
2017-03-05T01:26:41.448Z,984
2017-03-05T01:27:47.431Z,984
2017-03-05T01:28:53.414Z,985
2017-03-05T01:29:59.394Z,984
2017-03-05T01:31:05.381Z,984
2017-03-05T01:32:11.366Z,985
2017-03-05T01:33:17.353Z,984
2017-03-05T01:34:23.334Z,985
2017-03-05T01:35:29.318Z,985
2017-03-05T01:36:35.299Z,984
2017-03-05T01:37:41.282Z,985
2017-03-05T01:38:47.263Z,984
2017-03-05T01:39:53.248Z,984
2017-03-05T01:40:58.568Z,985
2017-03-05T01:42:04.555Z,984
2017-03-05T01:43:10.540Z,984
2017-03-05T01:44:16.529Z,984
2017-03-05T01:45:22.512Z,984
2017-03-05T01:46:28.520Z,984
2017-03-05T01:47:34.477Z,984
2017-03-05T01:48:40.463Z,984
2017-03-05T01:49:45.346Z,985
2017-03-05T01:50:51.329Z,984
2017-03-05T01:51:57.313Z,985
2017-03-05T01:53:02.636Z,985
2017-03-05T01:54:08.620Z,985
2017-03-05T01:55:14.602Z,985
2017-03-05T01:56:20.585Z,984
2017-03-05T01:57:26.567Z,985
2017-03-05T01:58:31.889Z,984
2017-03-05T01:59:37.208Z,985
2017-03-05T02:00:43.193Z,984
2017-03-05T02:01:49.177Z,985
2017-03-05T02:02:54.061Z,985
2017-03-05T02:03:58.940Z,985
2017-03-05T02:05:04.258Z,985
2017-03-05T02:06:10.245Z,984
2017-03-05T02:07:15.126Z,985
2017-03-05T02:08:21.105Z,985
2017-03-05T02:09:27.089Z,985
2017-03-05T02:10:33.075Z,985
2017-03-05T02:11:37.738Z,985
2017-03-05T02:12:43.720Z,985
2017-03-05T02:13:49.707Z,985
2017-03-05T02:14:54.587Z,985
2017-03-05T02:16:00.570Z,985
2017-03-05T02:17:05.886Z,984
2017-03-05T02:18:11.871Z,985
2017-03-05T02:19:17.192Z,985
2017-03-05T02:20:23.182Z,985
2017-03-05T02:21:29.160Z,985
2017-03-05T02:22:35.148Z,985
2017-03-05T02:23:40.030Z,985
2017-03-05T02:24:45.348Z,985
2017-03-05T02:25:51.326Z,985
2017-03-05T02:26:57.308Z,985
2017-03-05T02:28:03.295Z,985
2017-03-05T02:29:09.276Z,985
2017-03-05T02:30:14.603Z,985
2017-03-05T02:31:19.486Z,985
2017-03-05T02:32:24.371Z,985
2017-03-05T02:33:30.349Z,985
2017-03-05T02:34:35.672Z,985
2017-03-05T02:35:41.652Z,985
2017-03-05T02:36:47.789Z,985
2017-03-05T02:37:53.772Z,985
2017-03-05T02:38:59.096Z,985
2017-03-05T02:40:05.075Z,985
2017-03-05T02:41:11.063Z,985
2017-03-05T02:42:17.048Z,985
2017-03-05T02:43:23.033Z,985
2017-03-05T02:44:29.013Z,985
2017-03-05T02:45:34.338Z,985
2017-03-05T02:46:40.325Z,985
2017-03-05T02:47:46.305Z,985
2017-03-05T02:48:52.282Z,985
2017-03-05T02:49:58.270Z,985
2017-03-05T02:51:04.254Z,985
2017-03-05T02:52:10.236Z,985
2017-03-05T02:53:16.221Z,985
2017-03-05T02:54:22.203Z,985
2017-03-05T02:55:27.528Z,985
2017-03-05T02:56:33.509Z,985
2017-03-05T02:57:39.500Z,985
2017-03-05T02:58:45.478Z,985
2017-03-05T02:59:51.460Z,985
2017-03-05T03:00:57.439Z,985
2017-03-05T03:02:03.428Z,985
2017-03-05T03:03:08.748Z,985
2017-03-05T03:04:14.730Z,985
2017-03-05T03:05:20.714Z,985
2017-03-05T03:06:26.696Z,985
2017-03-05T03:07:32.683Z,985
2017-03-05T03:08:38.665Z,985
2017-03-05T03:09:44.648Z,985
2017-03-05T03:10:50.633Z,985
2017-03-05T03:11:56.621Z,985
2017-03-05T03:13:02.604Z,985
2017-03-05T03:14:08.586Z,985
2017-03-05T03:15:14.568Z,985
2017-03-05T03:16:20.554Z,985
2017-03-05T03:17:26.536Z,986
2017-03-05T03:18:32.525Z,986
2017-03-05T03:19:38.506Z,986
2017-03-05T03:20:44.486Z,986
2017-03-05T03:21:50.472Z,986
2017-03-05T03:22:55.792Z,986
2017-03-05T03:24:01.778Z,986
2017-03-05T03:25:07.760Z,986
2017-03-05T03:26:13.079Z,986
2017-03-05T03:27:19.065Z,986
2017-03-05T03:28:23.946Z,986
2017-03-05T03:29:29.930Z,986
2017-03-05T03:30:35.915Z,986
2017-03-05T03:31:41.898Z,986
2017-03-05T03:32:47.224Z,986
2017-03-05T03:33:53.206Z,986
2017-03-05T03:34:59.187Z,986
2017-03-05T03:36:05.170Z,986
2017-03-05T03:37:11.157Z,986
2017-03-05T03:38:17.142Z,986
2017-03-05T03:39:23.127Z,986
2017-03-05T03:40:29.109Z,986
2017-03-05T03:41:35.093Z,986
2017-03-05T03:42:41.079Z,986
2017-03-05T03:43:47.065Z,986
2017-03-05T03:44:53.049Z,986
2017-03-05T03:45:59.035Z,986
2017-03-05T03:47:05.018Z,986
2017-03-05T03:48:11.000Z,986
2017-03-05T03:49:16.988Z,986
2017-03-05T03:50:22.974Z,986
2017-03-05T03:51:28.960Z,986
2017-03-05T03:52:34.942Z,986
2017-03-05T03:53:40.259Z,986
2017-03-05T03:54:46.243Z,986
2017-03-05T03:55:52.230Z,986
2017-03-05T03:56:58.210Z,986
2017-03-05T03:58:04.198Z,986
2017-03-05T03:59:09.518Z,986
2017-03-05T04:00:15.503Z,986
2017-03-05T04:01:21.482Z,986
2017-03-05T04:02:27.468Z,986
2017-03-05T04:03:33.449Z,986
2017-03-05T04:04:39.434Z,986
2017-03-05T04:05:45.415Z,986
2017-03-05T04:06:51.400Z,986
2017-03-05T04:07:56.720Z,986
2017-03-05T04:09:02.702Z,986
2017-03-05T04:10:08.684Z,986
2017-03-05T04:11:14.673Z,986
2017-03-05T04:12:20.656Z,986
2017-03-05T04:13:26.641Z,986
2017-03-05T04:14:32.628Z,986
2017-03-05T04:15:38.605Z,986
2017-03-05T04:16:44.587Z,986
2017-03-05T04:17:50.570Z,986
2017-03-05T04:18:56.594Z,986
2017-03-05T04:20:02.536Z,986
2017-03-05T04:21:08.521Z,986
2017-03-05T04:22:14.504Z,986
2017-03-05T04:23:20.494Z,986
2017-03-05T04:24:26.474Z,986
2017-03-05T04:25:32.459Z,986
2017-03-05T04:26:38.444Z,986
2017-03-05T04:27:44.428Z,986
2017-03-05T04:28:50.406Z,986
2017-03-05T04:29:56.391Z,986
2017-03-05T04:31:02.374Z,986
2017-03-05T04:32:08.357Z,986
2017-03-05T04:33:14.343Z,986
2017-03-05T04:34:20.328Z,986
2017-03-05T04:35:26.309Z,986
2017-03-05T04:36:32.293Z,986
2017-03-05T04:37:38.275Z,986
2017-03-05T04:38:44.261Z,986
2017-03-05T04:39:50.247Z,986
2017-03-05T04:40:56.234Z,986
2017-03-05T04:42:02.219Z,986
2017-03-05T04:43:08.206Z,986
2017-03-05T04:44:13.530Z,986
2017-03-05T04:45:19.509Z,986
2017-03-05T04:46:25.492Z,986
2017-03-05T04:47:31.478Z,986
2017-03-05T04:48:37.461Z,986
2017-03-05T04:49:43.442Z,986
2017-03-05T04:50:49.425Z,986
2017-03-05T04:51:55.409Z,986
2017-03-05T04:53:01.395Z,986
2017-03-05T04:54:07.377Z,986
2017-03-05T04:55:13.360Z,986
2017-03-05T04:56:19.345Z,987
2017-03-05T04:57:25.326Z,987
2017-03-05T04:58:31.313Z,987
2017-03-05T04:59:36.634Z,987
2017-03-05T05:00:42.618Z,987
2017-03-05T05:01:48.599Z,987
2017-03-05T05:02:53.921Z,987
2017-03-05T05:03:59.240Z,987
2017-03-05T05:05:04.126Z,987
2017-03-05T05:06:10.106Z,987
2017-03-05T05:07:16.093Z,987
2017-03-05T05:08:22.080Z,987
2017-03-05T05:09:28.066Z,987
2017-03-05T05:10:34.050Z,987
2017-03-05T05:11:40.035Z,987
2017-03-05T05:12:46.020Z,987
2017-03-05T05:13:52.006Z,987
2017-03-05T05:14:57.984Z,987
2017-03-05T05:16:03.968Z,987
2017-03-05T05:17:08.857Z,987
2017-03-05T05:18:13.737Z,987
2017-03-05T05:19:19.719Z,987
2017-03-05T05:20:25.705Z,987
2017-03-05T05:21:31.689Z,987
2017-03-05T05:22:37.673Z,987
2017-03-05T05:23:43.651Z,987
2017-03-05T05:24:49.638Z,987
2017-03-05T05:25:55.622Z,987
2017-03-05T05:27:01.611Z,987
2017-03-05T05:28:07.589Z,987
2017-03-05T05:29:13.576Z,987
2017-03-05T05:30:19.563Z,987
2017-03-05T05:31:25.542Z,987
2017-03-05T05:32:31.523Z,987
2017-03-05T05:33:37.509Z,987
2017-03-05T05:34:43.495Z,987
2017-03-05T05:35:48.810Z,987
2017-03-05T05:36:54.796Z,987
2017-03-05T05:38:00.784Z,987
2017-03-05T05:39:06.106Z,987
2017-03-05T05:40:12.085Z,987
2017-03-05T05:41:18.070Z,987
2017-03-05T05:42:23.395Z,987
2017-03-05T05:43:29.377Z,987
2017-03-05T05:44:35.360Z,987
2017-03-05T05:45:41.345Z,987
2017-03-05T05:46:47.329Z,987
2017-03-05T05:47:53.330Z,987
2017-03-05T05:48:58.821Z,987
2017-03-05T05:50:05.221Z,987
2017-03-05T05:51:09.610Z,987
2017-03-05T05:52:15.589Z,987
2017-03-05T05:53:20.913Z,987
2017-03-05T05:54:26.897Z,988
2017-03-05T05:55:32.558Z,987
2017-03-05T05:56:41.315Z,988
2017-03-05T05:57:50.019Z,987
2017-03-05T05:58:57.421Z,988
2017-03-05T06:00:07.418Z,988
2017-03-05T06:01:12.751Z,988
2017-03-05T06:02:22.183Z,988
2017-03-05T06:03:30.020Z,988
2017-03-05T06:04:37.583Z,988
2017-03-05T06:05:48.482Z,988
2017-03-05T06:06:57.396Z,988
2017-03-05T06:08:06.050Z,988
2017-03-05T06:09:14.397Z,988
2017-03-05T06:10:24.730Z,988
2017-03-05T06:11:32.471Z,988
2017-03-05T06:12:39.921Z,988
2017-03-05T06:13:46.213Z,988
2017-03-05T06:16:01.184Z,988
2017-03-05T06:17:16.884Z,988
2017-03-05T06:18:16.470Z,988
2017-03-05T06:19:22.457Z,988
2017-03-05T06:20:28.439Z,988
2017-03-05T06:21:34.426Z,988
2017-03-05T06:22:40.413Z,988
2017-03-05T06:23:46.396Z,988
2017-03-05T06:24:52.377Z,988
2017-03-05T06:25:58.363Z,988
2017-03-05T06:27:04.344Z,988
2017-03-05T06:28:10.330Z,988
2017-03-05T06:29:16.319Z,988
2017-03-05T06:30:22.300Z,988
2017-03-05T06:31:28.284Z,988
2017-03-05T06:32:34.273Z,988
2017-03-05T06:33:41.186Z,988
2017-03-05T06:34:48.621Z,988
2017-03-05T06:35:53.962Z,988
2017-03-05T06:36:59.947Z,988
2017-03-05T06:38:05.933Z,988
2017-03-05T06:39:11.919Z,988
2017-03-05T06:40:17.903Z,988
2017-03-05T06:41:23.226Z,988
2017-03-05T06:42:29.211Z,988
2017-03-05T06:43:34.098Z,988
2017-03-05T06:44:40.090Z,988
2017-03-05T06:45:45.348Z,988
2017-03-05T06:46:51.331Z,988
2017-03-05T06:47:57.320Z,988
2017-03-05T06:49:03.301Z,988
2017-03-05T06:50:09.287Z,989
2017-03-05T06:51:14.609Z,989
2017-03-05T06:52:20.589Z,989
2017-03-05T06:53:26.572Z,989
2017-03-05T06:54:32.557Z,989
2017-03-05T06:55:38.540Z,989
2017-03-05T06:56:44.527Z,989
2017-03-05T06:57:50.509Z,989
2017-03-05T06:58:56.496Z,989
2017-03-05T07:00:02.482Z,989
2017-03-05T07:01:07.140Z,989
2017-03-05T07:02:13.124Z,989
2017-03-05T07:03:18.444Z,989
2017-03-05T07:04:24.431Z,989
2017-03-05T07:05:30.416Z,989
2017-03-05T07:06:36.399Z,989
2017-03-05T07:07:41.286Z,989
2017-03-05T07:08:45.507Z,989
2017-03-05T07:09:51.487Z,989
2017-03-05T07:10:56.814Z,989
2017-03-05T07:12:02.127Z,989
2017-03-05T07:13:08.112Z,989
2017-03-05T07:14:14.093Z,989
2017-03-05T07:15:20.076Z,989
2017-03-05T07:16:25.401Z,989
2017-03-05T07:17:31.390Z,989
2017-03-05T07:18:37.372Z,989
2017-03-05T07:19:43.356Z,989
2017-03-05T07:20:48.691Z,989
2017-03-05T07:21:54.660Z,989
2017-03-05T07:23:00.643Z,989
2017-03-05T07:24:05.964Z,989
2017-03-05T07:25:11.957Z,989
2017-03-05T07:26:17.939Z,989
2017-03-05T07:27:23.923Z,989
2017-03-05T07:28:29.906Z,989
2017-03-05T07:29:35.892Z,989
2017-03-05T07:30:41.872Z,989
2017-03-05T07:31:47.195Z,989
2017-03-05T07:32:52.074Z,989
2017-03-05T07:33:58.059Z,989
2017-03-05T07:35:04.051Z,989
2017-03-05T07:36:10.032Z,989
2017-03-05T07:37:16.011Z,989
2017-03-05T07:38:21.995Z,989
2017-03-05T07:39:27.976Z,989
2017-03-05T07:40:33.958Z,989
2017-03-05T07:41:39.941Z,989
2017-03-05T07:42:45.927Z,989
2017-03-05T07:43:51.911Z,990
2017-03-05T07:44:57.900Z,990
2017-03-05T07:46:03.881Z,990
2017-03-05T07:47:09.869Z,990
2017-03-05T07:48:15.850Z,990
2017-03-05T07:49:21.836Z,990
2017-03-05T07:50:26.715Z,990
2017-03-05T07:51:32.696Z,990
2017-03-05T07:52:38.679Z,990
2017-03-05T07:53:44.664Z,990
2017-03-05T07:54:50.651Z,990
2017-03-05T07:55:56.636Z,990
2017-03-05T07:57:01.957Z,990
2017-03-05T07:58:07.942Z,990
2017-03-05T07:59:12.832Z,990
2017-03-05T08:00:18.810Z,990
2017-03-05T08:01:24.142Z,990
2017-03-05T08:02:30.116Z,990
2017-03-05T08:03:36.094Z,990
2017-03-05T08:04:42.079Z,990
2017-03-05T08:05:48.064Z,990
2017-03-05T08:06:54.048Z,990
2017-03-05T08:07:59.381Z,990
2017-03-05T08:09:05.366Z,990
2017-03-05T08:10:11.343Z,990
2017-03-05T08:11:16.672Z,990
2017-03-05T08:12:22.653Z,990
2017-03-05T08:13:28.644Z,990
2017-03-05T08:14:34.627Z,990
2017-03-05T08:15:40.615Z,990
2017-03-05T08:16:46.619Z,990
2017-03-05T08:17:52.589Z,990
2017-03-05T08:18:58.574Z,990
2017-03-05T08:20:04.552Z,990
2017-03-05T08:21:09.870Z,990
2017-03-05T08:22:15.852Z,990
2017-03-05T08:23:21.838Z,990
2017-03-05T08:24:27.817Z,990
2017-03-05T08:25:33.803Z,990
2017-03-05T08:26:39.134Z,990
2017-03-05T08:27:45.113Z,990
2017-03-05T08:28:51.096Z,990
2017-03-05T08:29:57.098Z,990
2017-03-05T08:31:03.078Z,990
2017-03-05T08:32:09.057Z,990
2017-03-05T08:33:15.039Z,990
2017-03-05T08:34:21.028Z,990
2017-03-05T08:35:26.347Z,990
2017-03-05T08:36:31.234Z,990
2017-03-05T08:37:37.217Z,990
2017-03-05T08:38:42.538Z,990
2017-03-05T08:39:47.423Z,990
2017-03-05T08:40:53.409Z,990
2017-03-05T08:41:59.413Z,990
2017-03-05T08:43:05.374Z,990
2017-03-05T08:44:11.358Z,990
2017-03-05T08:45:17.344Z,990
2017-03-05T08:46:23.334Z,990
2017-03-05T08:47:29.314Z,990
2017-03-05T08:48:34.641Z,990
2017-03-05T08:49:40.620Z,990
2017-03-05T08:50:46.601Z,990
2017-03-05T08:51:52.585Z,990
2017-03-05T08:52:58.578Z,990
2017-03-05T08:54:03.887Z,990
2017-03-05T08:55:09.871Z,990
2017-03-05T08:56:15.198Z,990
2017-03-05T08:57:21.187Z,990
2017-03-05T08:58:26.505Z,990
2017-03-05T08:59:32.493Z,990
2017-03-05T09:00:38.485Z,990
2017-03-05T09:01:44.464Z,990
2017-03-05T09:02:50.447Z,990
2017-03-05T09:03:56.426Z,991
2017-03-05T09:05:02.410Z,991
2017-03-05T09:06:07.729Z,991
2017-03-05T09:07:13.717Z,990
2017-03-05T09:08:19.703Z,990
2017-03-05T09:09:25.690Z,991
2017-03-05T09:10:31.667Z,990
2017-03-05T09:11:36.991Z,991
2017-03-05T09:12:42.973Z,991
2017-03-05T09:13:48.959Z,991
2017-03-05T09:14:54.945Z,990
2017-03-05T09:16:00.929Z,991
2017-03-05T09:17:06.915Z,991
2017-03-05T09:18:12.900Z,991
2017-03-05T09:19:17.780Z,991
2017-03-05T09:20:22.662Z,991
2017-03-05T09:21:28.646Z,991
2017-03-05T09:22:34.627Z,991
2017-03-05T09:23:40.612Z,990
2017-03-05T09:24:46.597Z,991
2017-03-05T09:25:52.587Z,991
2017-03-05T09:26:57.906Z,991
2017-03-05T09:28:03.227Z,991
2017-03-05T09:30:22.689Z,991
2017-03-05T09:31:28.668Z,991
2017-03-05T09:32:34.655Z,991
2017-03-05T09:33:40.638Z,991
2017-03-05T09:34:45.962Z,991
2017-03-05T09:35:51.964Z,991
2017-03-05T09:36:57.934Z,991
2017-03-05T09:38:03.254Z,991
2017-03-05T09:39:09.236Z,991
2017-03-05T09:40:15.223Z,991
2017-03-05T09:41:21.208Z,991
2017-03-05T09:42:27.195Z,991
2017-03-05T09:43:33.181Z,991
2017-03-05T09:44:38.502Z,991
2017-03-05T09:45:44.482Z,991
2017-03-05T09:46:50.474Z,991
2017-03-05T09:47:56.456Z,991
2017-03-05T09:49:02.438Z,991
2017-03-05T09:50:08.418Z,991
2017-03-05T09:51:14.402Z,991
2017-03-05T09:52:19.726Z,991
2017-03-05T09:53:25.076Z,991
2017-03-05T09:54:31.031Z,991
2017-03-05T09:55:37.017Z,991
2017-03-05T09:56:43.002Z,991
2017-03-05T09:57:48.989Z,991
2017-03-05T09:58:54.965Z,991
2017-03-05T10:00:00.949Z,991
2017-03-05T10:01:06.936Z,991
2017-03-05T10:02:12.924Z,991
2017-03-05T10:03:18.246Z,991
2017-03-05T10:04:24.225Z,991
2017-03-05T10:05:30.212Z,991
2017-03-05T10:06:36.190Z,991
2017-03-05T10:07:42.179Z,991
2017-03-05T10:08:48.168Z,991
2017-03-05T10:09:54.160Z,991
2017-03-05T10:11:00.148Z,991
2017-03-05T10:12:06.138Z,991
2017-03-05T10:13:12.128Z,991
2017-03-05T10:14:17.453Z,991
2017-03-05T10:15:23.434Z,991
2017-03-05T10:16:29.421Z,991
2017-03-05T10:17:35.405Z,991
2017-03-05T10:18:41.398Z,991
2017-03-05T10:19:47.381Z,991
2017-03-05T10:20:52.704Z,991
2017-03-05T10:21:58.687Z,991
2017-03-05T10:23:04.679Z,991
2017-03-05T10:24:10.662Z,991
2017-03-05T10:25:16.656Z,991
2017-03-05T10:26:22.631Z,991
2017-03-05T10:27:28.620Z,991
2017-03-05T10:28:34.607Z,991
2017-03-05T10:29:40.589Z,991
2017-03-05T10:30:46.578Z,991
2017-03-05T10:31:52.569Z,991
2017-03-05T10:32:58.554Z,991
2017-03-05T10:34:04.537Z,991
2017-03-05T10:35:10.528Z,991
2017-03-05T10:36:16.514Z,991
2017-03-05T10:37:22.493Z,991
2017-03-05T10:38:28.478Z,991
2017-03-05T10:39:33.805Z,991
2017-03-05T10:40:39.789Z,991
2017-03-05T10:41:45.780Z,991
2017-03-05T10:42:51.769Z,991
2017-03-05T10:43:56.653Z,991
2017-03-05T10:45:02.654Z,991
2017-03-05T10:46:08.627Z,991
2017-03-05T10:47:14.613Z,991
2017-03-05T10:48:20.602Z,991
2017-03-05T10:49:26.598Z,991
2017-03-05T10:50:32.581Z,991
2017-03-05T10:51:38.566Z,991
2017-03-05T10:52:44.551Z,991
2017-03-05T10:53:50.534Z,991
2017-03-05T10:54:56.525Z,991
2017-03-05T10:56:02.502Z,991
2017-03-05T10:57:07.827Z,991
2017-03-05T10:58:12.709Z,991
2017-03-05T10:59:18.696Z,991
2017-03-05T11:00:24.688Z,991
2017-03-05T11:01:30.673Z,991
2017-03-05T11:02:36.657Z,991
2017-03-05T11:03:42.651Z,991
2017-03-05T11:04:47.531Z,991
2017-03-05T11:05:53.513Z,991
2017-03-05T11:06:58.175Z,991
2017-03-05T11:08:02.838Z,991
2017-03-05T11:09:08.162Z,991
2017-03-05T11:10:14.153Z,991
2017-03-05T11:11:20.138Z,991
2017-03-05T11:12:26.123Z,991
2017-03-05T11:13:32.117Z,991
2017-03-05T11:14:38.099Z,991
2017-03-05T11:15:44.085Z,991
2017-03-05T11:16:50.072Z,991
2017-03-05T11:17:56.055Z,991
2017-03-05T11:19:02.055Z,991
2017-03-05T11:20:06.930Z,991
2017-03-05T11:21:12.915Z,991
2017-03-05T11:22:18.242Z,991
2017-03-05T11:23:24.229Z,991
2017-03-05T11:24:30.218Z,991
2017-03-05T11:25:36.203Z,991
2017-03-05T11:26:42.189Z,991
2017-03-05T11:27:48.188Z,991
2017-03-05T11:28:54.167Z,991
2017-03-05T11:30:00.158Z,991
2017-03-05T11:31:06.139Z,991
2017-03-05T11:32:12.121Z,991
2017-03-05T11:33:18.107Z,991
2017-03-05T11:34:24.094Z,991
2017-03-05T11:35:30.090Z,991
2017-03-05T11:36:36.071Z,991
2017-03-05T11:37:42.052Z,991
2017-03-05T11:38:48.036Z,991
2017-03-05T11:39:54.023Z,991
2017-03-05T11:41:00.010Z,991
2017-03-05T11:42:05.997Z,991
2017-03-05T11:43:11.978Z,991
2017-03-05T11:44:17.969Z,991
2017-03-05T11:45:23.288Z,991
2017-03-05T11:46:29.271Z,991
2017-03-05T11:47:35.253Z,991
2017-03-05T11:48:40.580Z,991
2017-03-05T11:49:46.561Z,991
2017-03-05T11:50:52.549Z,991
2017-03-05T11:51:57.431Z,991
2017-03-05T11:53:03.413Z,991
2017-03-05T11:54:09.401Z,991
2017-03-05T11:55:14.287Z,991
2017-03-05T11:56:20.271Z,991
2017-03-05T11:57:26.265Z,991
2017-03-05T11:58:32.245Z,991
2017-03-05T11:59:38.234Z,991
2017-03-05T12:00:44.216Z,991
2017-03-05T12:01:50.206Z,991
2017-03-05T12:02:56.197Z,991
2017-03-05T12:04:02.179Z,991
2017-03-05T12:05:08.161Z,991
2017-03-05T12:06:14.147Z,991
2017-03-05T12:07:20.139Z,991
2017-03-05T12:08:26.120Z,991
2017-03-05T12:09:32.108Z,991
2017-03-05T12:10:38.096Z,991
2017-03-05T12:11:44.088Z,991
2017-03-05T12:12:50.068Z,991
2017-03-05T12:13:56.058Z,991
2017-03-05T12:15:02.043Z,991
2017-03-05T12:16:08.032Z,991
2017-03-05T12:17:13.360Z,991
2017-03-05T12:18:19.343Z,991
2017-03-05T12:19:25.332Z,991
2017-03-05T12:20:31.320Z,991
2017-03-05T12:21:37.295Z,991
2017-03-05T12:22:42.619Z,991
2017-03-05T12:23:48.610Z,991
2017-03-05T12:24:54.588Z,991
2017-03-05T12:26:00.573Z,991
2017-03-05T12:27:06.566Z,991
2017-03-05T12:28:12.549Z,991
2017-03-05T12:29:18.537Z,991
2017-03-05T12:30:24.525Z,991
2017-03-05T12:31:30.513Z,991
2017-03-05T12:32:36.504Z,991
2017-03-05T12:33:42.488Z,991
2017-03-05T12:34:48.472Z,991
2017-03-05T12:35:53.796Z,991
2017-03-05T12:36:58.454Z,991
2017-03-05T12:38:04.444Z,991
2017-03-05T12:39:10.431Z,991
2017-03-05T12:40:16.421Z,991
2017-03-05T12:41:22.406Z,991
2017-03-05T12:42:28.393Z,991
2017-03-05T12:43:34.381Z,991
2017-03-05T12:44:40.367Z,991
2017-03-05T12:45:46.347Z,991
2017-03-05T12:46:52.342Z,991
2017-03-05T12:47:58.331Z,991
2017-03-05T12:49:04.313Z,991
2017-03-05T12:50:10.299Z,991
2017-03-05T12:51:16.288Z,991
2017-03-05T12:52:22.272Z,991
2017-03-05T12:53:28.259Z,991
2017-03-05T12:54:34.247Z,991
2017-03-05T12:55:40.232Z,991
2017-03-05T12:56:45.555Z,991
2017-03-05T12:57:50.878Z,991
2017-03-05T12:58:56.866Z,991
2017-03-05T13:00:02.851Z,991
2017-03-05T13:01:08.841Z,991
2017-03-05T13:02:14.824Z,991
2017-03-05T13:03:20.806Z,991
2017-03-05T13:04:26.794Z,991
2017-03-05T13:05:32.782Z,991
2017-03-05T13:06:38.765Z,991
2017-03-05T13:07:44.758Z,991
2017-03-05T13:08:50.747Z,991
2017-03-05T13:09:56.739Z,991
2017-03-05T13:11:02.721Z,991
2017-03-05T13:12:08.717Z,991
2017-03-05T13:13:14.714Z,991
2017-03-05T13:14:22.731Z,991
2017-03-05T13:15:27.006Z,991
2017-03-05T13:16:33.329Z,991
2017-03-05T13:17:41.188Z,991
2017-03-05T13:18:50.019Z,991
2017-03-05T13:20:04.223Z,991
2017-03-05T13:21:08.860Z,991
2017-03-05T13:22:21.432Z,991
2017-03-05T13:23:25.990Z,991
2017-03-05T13:24:36.769Z,991
2017-03-05T13:25:51.857Z,991
2017-03-05T13:27:04.187Z,991
2017-03-05T13:28:16.395Z,991
2017-03-05T13:29:37.640Z,991
2017-03-05T13:30:48.763Z,991
2017-03-05T13:32:04.338Z,991
2017-03-05T13:33:14.086Z,991
2017-03-05T13:34:19.191Z,991
2017-03-05T13:35:34.134Z,991
2017-03-05T13:36:48.556Z,991
2017-03-05T13:38:09.881Z,991
2017-03-05T13:39:17.890Z,991
2017-03-05T13:40:33.517Z,991
2017-03-05T13:41:51.324Z,991
2017-03-05T13:43:05.160Z,991
2017-03-05T13:44:29.909Z,992
2017-03-05T13:45:35.574Z,991
2017-03-05T13:46:42.789Z,992
2017-03-05T13:47:59.514Z,991
2017-03-05T13:49:12.007Z,991
2017-03-05T13:50:19.731Z,991
2017-03-05T13:51:31.378Z,991
2017-03-05T13:52:49.160Z,992
2017-03-05T13:54:13.249Z,991
2017-03-05T13:55:32.476Z,991
2017-03-05T13:56:47.784Z,991
2017-03-05T13:57:56.854Z,992
2017-03-05T13:59:11.366Z,992
2017-03-05T14:00:20.439Z,992
2017-03-05T14:01:25.303Z,992
2017-03-05T14:02:33.759Z,991
2017-03-05T14:03:41.979Z,992
2017-03-05T14:04:47.103Z,992
2017-03-05T14:05:57.700Z,992
2017-03-05T14:07:13.149Z,992
2017-03-05T14:08:19.827Z,992
2017-03-05T14:09:28.366Z,992
2017-03-05T14:10:32.757Z,992
2017-03-05T14:11:43.123Z,992
2017-03-05T14:13:02.725Z,992
2017-03-05T14:14:11.616Z,992
2017-03-05T14:15:18.756Z,992
2017-03-05T14:16:26.844Z,992
2017-03-05T14:17:40.639Z,992
2017-03-05T14:18:57.472Z,992
2017-03-05T14:20:07.330Z,992
2017-03-05T14:21:18.113Z,992
2017-03-05T14:22:26.981Z,992
2017-03-05T14:23:34.670Z,992
2017-03-05T14:24:43.470Z,992
2017-03-05T14:25:48.516Z,992
2017-03-05T14:26:54.901Z,992
2017-03-05T14:28:00.951Z,992
2017-03-05T14:29:07.447Z,992
2017-03-05T14:30:13.957Z,992
2017-03-05T14:31:21.027Z,992
2017-03-05T14:32:28.879Z,992
2017-03-05T14:33:36.582Z,992
2017-03-05T14:34:42.769Z,992
2017-03-05T14:35:49.548Z,992
2017-03-05T14:36:55.775Z,992
2017-03-05T14:38:02.149Z,992
2017-03-05T14:39:09.009Z,992
2017-03-05T14:40:15.535Z,992
2017-03-05T14:41:21.807Z,992
2017-03-05T14:42:28.231Z,992
2017-03-05T14:43:36.446Z,992
2017-03-05T14:44:45.274Z,992
2017-03-05T14:45:52.694Z,992
2017-03-05T14:46:59.011Z,992
2017-03-05T14:48:06.248Z,992
2017-03-05T14:49:10.825Z,992
2017-03-05T14:50:17.416Z,992
2017-03-05T14:51:23.539Z,992
2017-03-05T14:52:29.805Z,992
2017-03-05T14:53:35.922Z,992
2017-03-05T14:54:42.115Z,992
2017-03-05T14:55:48.378Z,992
2017-03-05T14:56:54.408Z,992
2017-03-05T14:58:00.007Z,992
2017-03-05T14:59:05.544Z,992
2017-03-05T15:00:11.728Z,992
2017-03-05T15:01:17.783Z,992
2017-03-05T15:02:24.095Z,992
2017-03-05T15:03:30.194Z,992
2017-03-05T15:04:36.389Z,992
2017-03-05T15:05:42.693Z,992
2017-03-05T15:06:48.711Z,992
2017-03-05T15:07:54.745Z,992
2017-03-05T15:08:59.601Z,992
2017-03-05T15:10:06.114Z,992
2017-03-05T15:11:12.129Z,992
2017-03-05T15:12:19.479Z,992
2017-03-05T15:13:25.319Z,992
2017-03-05T15:14:34.160Z,992
2017-03-05T15:15:40.112Z,992
2017-03-05T15:16:46.714Z,992